Dunkirk, Maryland
Current Conditions -  °F | °C
As of 8:08 AM on Wednesday 26 Nov 2014 (Local Time) from KADW Reporting Station
Moderate Rain Moderate Rain  
Wind Chill: 33°   Ceiling: 900
Heat Index: 41°   Visibility: 5mi
Dew Point: 39°   Wind: 14mph
Humidity: 93%   Direction: 40°NE
Pressure: 30.03"   Gusts: NA
Location:  38.72°N, 76.66°W
Report Text: KADW 261308Z AUTO 04012KT 5SM RA BR BKN009 BKN014 OVC022 05/04 A3003 RMK AO2 CIG 009V014 BKN009 V SCT $
Loading
Personal Weather Stations






























Interactive Weather Map New forecast layout! Learn more

10-Day Weather Forecast

Advertisements
Track Severe Weather on mobile